sensor_id;sensor_type;location;lat;lon;timestamp;P1;durP1;ratioP1;P2;durP2;ratioP2
64667;SDS011;51077;42.716;23.344;2022-12-08T00:00:46;28.77;;;15.35;;
64667;SDS011;51077;42.716;23.344;2022-12-08T00:03:12;26.87;;;15.63;;
64667;SDS011;51077;42.716;23.344;2022-12-08T00:05:42;28.95;;;16.60;;
64667;SDS011;51077;42.716;23.344;2022-12-08T00:08:30;31.65;;;17.40;;
64667;SDS011;51077;42.716;23.344;2022-12-08T00:11:15;31.98;;;18.10;;
64667;SDS011;51077;42.716;23.344;2022-12-08T00:13:41;34.35;;;19.30;;
64667;SDS011;51077;42.716;23.344;2022-12-08T00:16:06;30.57;;;17.77;;
64667;SDS011;51077;42.716;23.344;2022-12-08T00:18:32;29.73;;;18.00;;
64667;SDS011;51077;42.716;23.344;2022-12-08T00:20:58;33.23;;;17.90;;
64667;SDS011;51077;42.716;23.344;2022-12-08T00:23:23;28.37;;;17.23;;
64667;SDS011;51077;42.716;23.344;2022-12-08T00:25:49;36.80;;;19.20;;
64667;SDS011;51077;42.716;23.344;2022-12-08T00:28:15;32.83;;;18.53;;
64667;SDS011;51077;42.716;23.344;2022-12-08T00:30:41;37.10;;;20.10;;
64667;SDS011;51077;42.716;23.344;2022-12-08T00:33:07;29.77;;;17.60;;
64667;SDS011;51077;42.716;23.344;2022-12-08T00:35:33;31.27;;;18.45;;
64667;SDS011;51077;42.716;23.344;2022-12-08T00:37:59;31.20;;;17.30;;
64667;SDS011;51077;42.716;23.344;2022-12-08T00:40:24;31.67;;;17.30;;
64667;SDS011;51077;42.716;23.344;2022-12-08T00:42:50;29.90;;;18.13;;
64667;SDS011;51077;42.716;23.344;2022-12-08T00:45:15;32.17;;;17.70;;
64667;SDS011;51077;42.716;23.344;2022-12-08T00:47:40;29.57;;;17.80;;
64667;SDS011;51077;42.716;23.344;2022-12-08T00:50:06;29.80;;;17.23;;
64667;SDS011;51077;42.716;23.344;2022-12-08T00:52:32;29.88;;;16.83;;
64667;SDS011;51077;42.716;23.344;2022-12-08T00:54:57;29.33;;;17.93;;
64667;SDS011;51077;42.716;23.344;2022-12-08T00:57:23;29.47;;;17.33;;
64667;SDS011;51077;42.716;23.344;2022-12-08T00:59:48;27.90;;;16.73;;
64667;SDS011;51077;42.716;23.344;2022-12-08T01:02:13;27.73;;;15.50;;
64667;SDS011;51077;42.716;23.344;2022-12-08T01:04:39;29.97;;;16.37;;
64667;SDS011;51077;42.716;23.344;2022-12-08T01:07:05;28.38;;;16.05;;
64667;SDS011;51077;42.716;23.344;2022-12-08T01:09:31;25.77;;;16.02;;
64667;SDS011;51077;42.716;23.344;2022-12-08T01:11:56;26.97;;;15.73;;
64667;SDS011;51077;42.716;23.344;2022-12-08T01:14:22;30.63;;;17.10;;
64667;SDS011;51077;42.716;23.344;2022-12-08T01:16:47;26.73;;;15.33;;
64667;SDS011;51077;42.716;23.344;2022-12-08T01:19:14;25.10;;;14.77;;
64667;SDS011;51077;42.716;23.344;2022-12-08T01:21:41;23.77;;;15.00;;
64667;SDS011;51077;42.716;23.344;2022-12-08T01:24:15;22.50;;;14.75;;
64667;SDS011;51077;42.716;23.344;2022-12-08T01:26:42;29.10;;;14.65;;
64667;SDS011;51077;42.716;23.344;2022-12-08T01:29:08;29.13;;;16.42;;
64667;SDS011;51077;42.716;23.344;2022-12-08T01:31:35;27.25;;;14.82;;
64667;SDS011;51077;42.716;23.344;2022-12-08T01:34:01;25.90;;;15.33;;
64667;SDS011;51077;42.716;23.344;2022-12-08T01:36:27;30.47;;;15.63;;
64667;SDS011;51077;42.716;23.344;2022-12-08T01:38:58;24.08;;;15.23;;
64667;SDS011;51077;42.716;23.344;2022-12-08T01:41:26;25.63;;;15.50;;
64667;SDS011;51077;42.716;23.344;2022-12-08T01:46:18;28.07;;;14.37;;
64667;SDS011;51077;42.716;23.344;2022-12-08T01:48:44;26.13;;;15.67;;
64667;SDS011;51077;42.716;23.344;2022-12-08T01:51:09;26.23;;;15.87;;
64667;SDS011;51077;42.716;23.344;2022-12-08T01:53:35;30.20;;;15.90;;
64667;SDS011;51077;42.716;23.344;2022-12-08T01:56:08;26.53;;;15.90;;
64667;SDS011;51077;42.716;23.344;2022-12-08T01:58:40;22.70;;;14.77;;
64667;SDS011;51077;42.716;23.344;2022-12-08T02:01:09;22.88;;;15.32;;
64667;SDS011;51077;42.716;23.344;2022-12-08T02:03:40;26.37;;;15.43;;
64667;SDS011;51077;42.716;23.344;2022-12-08T02:06:09;27.73;;;16.10;;
64667;SDS011;51077;42.716;23.344;2022-12-08T02:08:35;26.88;;;15.95;;
64667;SDS011;51077;42.716;23.344;2022-12-08T02:11:04;28.90;;;16.85;;
64667;SDS011;51077;42.716;23.344;2022-12-08T02:13:32;23.83;;;15.10;;
64667;SDS011;51077;42.716;23.344;2022-12-08T02:21:47;27.17;;;16.25;;
64667;SDS011;51077;42.716;23.344;2022-12-08T02:30:06;26.23;;;15.48;;
64667;SDS011;51077;42.716;23.344;2022-12-08T02:35:25;26.25;;;15.63;;
64667;SDS011;51077;42.716;23.344;2022-12-08T02:38:06;27.95;;;16.42;;
64667;SDS011;51077;42.716;23.344;2022-12-08T02:43:25;26.30;;;16.10;;
64667;SDS011;51077;42.716;23.344;2022-12-08T02:49:08;29.45;;;17.45;;
64667;SDS011;51077;42.716;23.344;2022-12-08T02:51:34;28.15;;;16.25;;
64667;SDS011;51077;42.716;23.344;2022-12-08T02:53:59;28.73;;;16.80;;
64667;SDS011;51077;42.716;23.344;2022-12-08T02:56:34;27.33;;;16.85;;
64667;SDS011;51077;42.716;23.344;2022-12-08T03:05:21;27.02;;;16.98;;
64667;SDS011;51077;42.716;23.344;2022-12-08T03:07:22;28.55;;;16.65;;
64667;SDS011;51077;42.716;23.344;2022-12-08T03:10:08;32.90;;;18.38;;
64667;SDS011;51077;42.716;23.344;2022-12-08T03:12:40;30.90;;;17.42;;
64667;SDS011;51077;42.716;23.344;2022-12-08T03:15:10;30.42;;;18.20;;
64667;SDS011;51077;42.716;23.344;2022-12-08T03:17:45;28.40;;;17.63;;
64667;SDS011;51077;42.716;23.344;2022-12-08T03:20:19;31.40;;;18.88;;
64667;SDS011;51077;42.716;23.344;2022-12-08T03:22:47;30.98;;;18.73;;
64667;SDS011;51077;42.716;23.344;2022-12-08T03:25:16;35.63;;;19.77;;
64667;SDS011;51077;42.716;23.344;2022-12-08T03:27:45;29.95;;;18.17;;
64667;SDS011;51077;42.716;23.344;2022-12-08T03:30:11;36.73;;;19.00;;
64667;SDS011;51077;42.716;23.344;2022-12-08T03:35:27;30.70;;;18.58;;
64667;SDS011;51077;42.716;23.344;2022-12-08T03:38:02;37.90;;;20.45;;
64667;SDS011;51077;42.716;23.344;2022-12-08T03:40:35;30.42;;;18.88;;
64667;SDS011;51077;42.716;23.344;2022-12-08T03:43:01;30.33;;;18.40;;
64667;SDS011;51077;42.716;23.344;2022-12-08T03:45:27;33.28;;;19.63;;
64667;SDS011;51077;42.716;23.344;2022-12-08T03:47:53;32.23;;;19.03;;
64667;SDS011;51077;42.716;23.344;2022-12-08T03:50:18;32.07;;;19.07;;
64667;SDS011;51077;42.716;23.344;2022-12-08T03:52:44;30.20;;;18.77;;
64667;SDS011;51077;42.716;23.344;2022-12-08T03:55:09;34.13;;;18.43;;
64667;SDS011;51077;42.716;23.344;2022-12-08T03:57:35;33.53;;;18.60;;
64667;SDS011;51077;42.716;23.344;2022-12-08T04:00:00;31.37;;;18.80;;
64667;SDS011;51077;42.716;23.344;2022-12-08T04:02:27;36.55;;;20.27;;
64667;SDS011;51077;42.716;23.344;2022-12-08T04:04:52;33.57;;;19.87;;
64667;SDS011;51077;42.716;23.344;2022-12-08T04:07:17;33.87;;;20.63;;
64667;SDS011;51077;42.716;23.344;2022-12-08T04:09:43;30.97;;;19.30;;
64667;SDS011;51077;42.716;23.344;2022-12-08T04:12:09;33.17;;;19.25;;
64667;SDS011;51077;42.716;23.344;2022-12-08T04:14:34;31.83;;;19.77;;
64667;SDS011;51077;42.716;23.344;2022-12-08T04:17:00;33.27;;;19.40;;
64667;SDS011;51077;42.716;23.344;2022-12-08T04:19:25;33.23;;;19.20;;
64667;SDS011;51077;42.716;23.344;2022-12-08T04:21:51;36.27;;;21.60;;
64667;SDS011;51077;42.716;23.344;2022-12-08T04:24:16;34.57;;;20.33;;
64667;SDS011;51077;42.716;23.344;2022-12-08T04:26:42;39.77;;;22.67;;
64667;SDS011;51077;42.716;23.344;2022-12-08T04:29:07;36.63;;;21.43;;
64667;SDS011;51077;42.716;23.344;2022-12-08T04:31:32;37.83;;;21.33;;
64667;SDS011;51077;42.716;23.344;2022-12-08T04:33:58;33.73;;;20.83;;
64667;SDS011;51077;42.716;23.344;2022-12-08T04:36:23;32.30;;;19.90;;
64667;SDS011;51077;42.716;23.344;2022-12-08T04:38:49;34.13;;;20.80;;
64667;SDS011;51077;42.716;23.344;2022-12-08T04:41:14;36.77;;;20.87;;
64667;SDS011;51077;42.716;23.344;2022-12-08T04:43:40;35.97;;;21.27;;
64667;SDS011;51077;42.716;23.344;2022-12-08T04:46:08;35.67;;;21.40;;
64667;SDS011;51077;42.716;23.344;2022-12-08T04:48:35;36.13;;;20.80;;
64667;SDS011;51077;42.716;23.344;2022-12-08T04:51:01;37.15;;;20.50;;
64667;SDS011;51077;42.716;23.344;2022-12-08T04:53:27;33.73;;;20.47;;
64667;SDS011;51077;42.716;23.344;2022-12-08T04:55:53;34.03;;;21.70;;
64667;SDS011;51077;42.716;23.344;2022-12-08T04:58:18;38.07;;;21.83;;
64667;SDS011;51077;42.716;23.344;2022-12-08T05:00:44;34.43;;;22.43;;
64667;SDS011;51077;42.716;23.344;2022-12-08T05:03:10;37.45;;;21.70;;
64667;SDS011;51077;42.716;23.344;2022-12-08T05:05:36;35.10;;;21.40;;
64667;SDS011;51077;42.716;23.344;2022-12-08T05:08:02;38.17;;;20.77;;
64667;SDS011;51077;42.716;23.344;2022-12-08T05:10:27;35.93;;;21.47;;
64667;SDS011;51077;42.716;23.344;2022-12-08T05:12:52;34.23;;;20.27;;
64667;SDS011;51077;42.716;23.344;2022-12-08T05:15:18;37.67;;;20.97;;
64667;SDS011;51077;42.716;23.344;2022-12-08T05:17:43;36.33;;;21.67;;
64667;SDS011;51077;42.716;23.344;2022-12-08T05:20:09;36.87;;;21.30;;
64667;SDS011;51077;42.716;23.344;2022-12-08T05:22:35;33.67;;;20.55;;
64667;SDS011;51077;42.716;23.344;2022-12-08T05:25:00;35.93;;;21.20;;
64667;SDS011;51077;42.716;23.344;2022-12-08T05:27:26;36.37;;;21.47;;
64667;SDS011;51077;42.716;23.344;2022-12-08T05:29:51;40.53;;;21.67;;
64667;SDS011;51077;42.716;23.344;2022-12-08T05:32:17;38.33;;;21.40;;
64667;SDS011;51077;42.716;23.344;2022-12-08T05:34:42;39.43;;;22.63;;
64667;SDS011;51077;42.716;23.344;2022-12-08T05:37:07;43.07;;;22.83;;
64667;SDS011;51077;42.716;23.344;2022-12-08T05:39:33;43.57;;;24.00;;
64667;SDS011;51077;42.716;23.344;2022-12-08T05:41:58;42.23;;;23.03;;
64667;SDS011;51077;42.716;23.344;2022-12-08T05:44:24;40.83;;;23.00;;
64667;SDS011;51077;42.716;23.344;2022-12-08T05:46:49;36.20;;;22.23;;
64667;SDS011;51077;42.716;23.344;2022-12-08T05:49:15;41.15;;;22.80;;
64667;SDS011;51077;42.716;23.344;2022-12-08T05:51:41;46.77;;;24.23;;
64667;SDS011;51077;42.716;23.344;2022-12-08T05:54:06;43.33;;;25.10;;
64667;SDS011;51077;42.716;23.344;2022-12-08T05:56:31;40.80;;;22.50;;
64667;SDS011;51077;42.716;23.344;2022-12-08T05:58:57;42.00;;;23.00;;
64667;SDS011;51077;42.716;23.344;2022-12-08T06:01:23;43.23;;;24.33;;
64667;SDS011;51077;42.716;23.344;2022-12-08T06:03:51;41.00;;;22.98;;
64667;SDS011;51077;42.716;23.344;2022-12-08T06:06:17;42.27;;;23.67;;
64667;SDS011;51077;42.716;23.344;2022-12-08T06:08:43;40.58;;;22.90;;
64667;SDS011;51077;42.716;23.344;2022-12-08T06:11:08;39.37;;;22.27;;
64667;SDS011;51077;42.716;23.344;2022-12-08T06:13:34;42.67;;;21.67;;
64667;SDS011;51077;42.716;23.344;2022-12-08T06:16:06;36.13;;;21.77;;
64667;SDS011;51077;42.716;23.344;2022-12-08T06:18:31;36.90;;;20.73;;
64667;SDS011;51077;42.716;23.344;2022-12-08T06:21:01;38.97;;;22.27;;
64667;SDS011;51077;42.716;23.344;2022-12-08T06:23:28;39.75;;;23.30;;
64667;SDS011;51077;42.716;23.344;2022-12-08T06:25:53;37.37;;;21.80;;
64667;SDS011;51077;42.716;23.344;2022-12-08T06:28:18;44.47;;;23.67;;
64667;SDS011;51077;42.716;23.344;2022-12-08T06:30:44;39.53;;;21.03;;
64667;SDS011;51077;42.716;23.344;2022-12-08T06:33:09;32.77;;;19.37;;
64667;SDS011;51077;42.716;23.344;2022-12-08T06:35:35;42.90;;;22.17;;
64667;SDS011;51077;42.716;23.344;2022-12-08T06:38:01;37.08;;;21.60;;
64667;SDS011;51077;42.716;23.344;2022-12-08T06:40:26;36.33;;;20.13;;
64667;SDS011;51077;42.716;23.344;2022-12-08T06:42:52;37.70;;;20.77;;
64667;SDS011;51077;42.716;23.344;2022-12-08T06:45:17;35.07;;;21.07;;
64667;SDS011;51077;42.716;23.344;2022-12-08T06:47:42;34.63;;;19.97;;
64667;SDS011;51077;42.716;23.344;2022-12-08T06:50:09;37.23;;;21.63;;
64667;SDS011;51077;42.716;23.344;2022-12-08T06:52:35;34.60;;;21.00;;
64667;SDS011;51077;42.716;23.344;2022-12-08T06:55:00;38.83;;;22.67;;
64667;SDS011;51077;42.716;23.344;2022-12-08T06:57:26;39.83;;;24.47;;
64667;SDS011;51077;42.716;23.344;2022-12-08T06:59:51;35.03;;;21.90;;
64667;SDS011;51077;42.716;23.344;2022-12-08T07:02:17;38.20;;;23.63;;
64667;SDS011;51077;42.716;23.344;2022-12-08T07:04:42;37.60;;;23.53;;
64667;SDS011;51077;42.716;23.344;2022-12-08T07:07:08;41.77;;;24.90;;
64667;SDS011;51077;42.716;23.344;2022-12-08T07:09:33;35.67;;;23.63;;
64667;SDS011;51077;42.716;23.344;2022-12-08T07:11:59;41.47;;;25.00;;
64667;SDS011;51077;42.716;23.344;2022-12-08T07:14:24;42.67;;;25.37;;
64667;SDS011;51077;42.716;23.344;2022-12-08T07:16:50;41.03;;;26.40;;
64667;SDS011;51077;42.716;23.344;2022-12-08T07:19:16;43.58;;;26.67;;
64667;SDS011;51077;42.716;23.344;2022-12-08T07:21:42;38.60;;;25.33;;
64667;SDS011;51077;42.716;23.344;2022-12-08T07:24:07;45.10;;;28.93;;
64667;SDS011;51077;42.716;23.344;2022-12-08T07:26:33;46.23;;;28.33;;
64667;SDS011;51077;42.716;23.344;2022-12-08T07:28:58;46.70;;;29.37;;
64667;SDS011;51077;42.716;23.344;2022-12-08T07:31:24;47.73;;;30.73;;
64667;SDS011;51077;42.716;23.344;2022-12-08T07:33:51;48.28;;;30.80;;
64667;SDS011;51077;42.716;23.344;2022-12-08T07:36:18;45.25;;;30.20;;
64667;SDS011;51077;42.716;23.344;2022-12-08T07:38:43;49.30;;;31.20;;
64667;SDS011;51077;42.716;23.344;2022-12-08T07:41:13;45.53;;;30.77;;
64667;SDS011;51077;42.716;23.344;2022-12-08T07:43:42;46.72;;;32.35;;
64667;SDS011;51077;42.716;23.344;2022-12-08T07:46:12;49.60;;;30.40;;
64667;SDS011;51077;42.716;23.344;2022-12-08T07:48:38;46.35;;;31.48;;
64667;SDS011;51077;42.716;23.344;2022-12-08T07:51:04;53.00;;;33.10;;
64667;SDS011;51077;42.716;23.344;2022-12-08T07:53:30;47.75;;;31.27;;
64667;SDS011;51077;42.716;23.344;2022-12-08T07:55:56;50.00;;;32.65;;
64667;SDS011;51077;42.716;23.344;2022-12-08T07:58:21;47.47;;;32.83;;
64667;SDS011;51077;42.716;23.344;2022-12-08T08:00:47;49.37;;;33.90;;
64667;SDS011;51077;42.716;23.344;2022-12-08T08:03:12;55.83;;;35.00;;
64667;SDS011;51077;42.716;23.344;2022-12-08T08:05:38;50.60;;;34.27;;
64667;SDS011;51077;42.716;23.344;2022-12-08T08:08:03;57.33;;;34.23;;
64667;SDS011;51077;42.716;23.344;2022-12-08T08:10:29;52.40;;;34.37;;
64667;SDS011;51077;42.716;23.344;2022-12-08T08:12:57;55.53;;;35.50;;
64667;SDS011;51077;42.716;23.344;2022-12-08T08:15:23;52.08;;;33.60;;
64667;SDS011;51077;42.716;23.344;2022-12-08T08:17:49;52.58;;;34.33;;
64667;SDS011;51077;42.716;23.344;2022-12-08T08:20:16;54.45;;;36.20;;
64667;SDS011;51077;42.716;23.344;2022-12-08T08:22:42;56.53;;;36.47;;
64667;SDS011;51077;42.716;23.344;2022-12-08T08:25:09;52.47;;;35.90;;
64667;SDS011;51077;42.716;23.344;2022-12-08T08:27:35;53.03;;;38.43;;
64667;SDS011;51077;42.716;23.344;2022-12-08T08:30:00;53.23;;;36.40;;
64667;SDS011;51077;42.716;23.344;2022-12-08T08:32:26;53.77;;;36.13;;
64667;SDS011;51077;42.716;23.344;2022-12-08T08:34:51;60.67;;;38.40;;
64667;SDS011;51077;42.716;23.344;2022-12-08T08:37:17;63.30;;;38.93;;
64667;SDS011;51077;42.716;23.344;2022-12-08T08:39:42;61.47;;;36.17;;
64667;SDS011;51077;42.716;23.344;2022-12-08T08:42:07;55.60;;;36.87;;
64667;SDS011;51077;42.716;23.344;2022-12-08T08:44:33;57.50;;;37.83;;
64667;SDS011;51077;42.716;23.344;2022-12-08T08:46:58;56.57;;;37.33;;
64667;SDS011;51077;42.716;23.344;2022-12-08T08:49:24;57.23;;;38.07;;
64667;SDS011;51077;42.716;23.344;2022-12-08T08:51:49;52.43;;;35.70;;
64667;SDS011;51077;42.716;23.344;2022-12-08T08:54:14;53.93;;;36.57;;
64667;SDS011;51077;42.716;23.344;2022-12-08T08:56:40;58.13;;;36.03;;
64667;SDS011;51077;42.716;23.344;2022-12-08T08:59:05;54.27;;;37.07;;
64667;SDS011;51077;42.716;23.344;2022-12-08T09:01:31;52.50;;;35.00;;
64667;SDS011;51077;42.716;23.344;2022-12-08T09:03:56;52.93;;;35.30;;
64667;SDS011;51077;42.716;23.344;2022-12-08T09:06:23;55.92;;;34.80;;
64667;SDS011;51077;42.716;23.344;2022-12-08T09:08:49;48.60;;;34.00;;
64667;SDS011;51077;42.716;23.344;2022-12-08T09:11:15;48.92;;;32.97;;
64667;SDS011;51077;42.716;23.344;2022-12-08T09:13:42;50.60;;;34.05;;
64667;SDS011;51077;42.716;23.344;2022-12-08T09:16:09;46.92;;;31.80;;
64667;SDS011;51077;42.716;23.344;2022-12-08T09:18:35;47.17;;;31.98;;
64667;SDS011;51077;42.716;23.344;2022-12-08T09:21:05;42.77;;;30.57;;
64667;SDS011;51077;42.716;23.344;2022-12-08T09:23:32;47.22;;;30.80;;
64667;SDS011;51077;42.716;23.344;2022-12-08T09:25:58;41.13;;;28.73;;
64667;SDS011;51077;42.716;23.344;2022-12-08T09:28:24;46.17;;;30.43;;
64667;SDS011;51077;42.716;23.344;2022-12-08T09:30:49;44.13;;;28.27;;
64667;SDS011;51077;42.716;23.344;2022-12-08T09:33:15;39.85;;;28.27;;
64667;SDS011;51077;42.716;23.344;2022-12-08T09:35:41;42.13;;;26.47;;
64667;SDS011;51077;42.716;23.344;2022-12-08T09:38:06;38.87;;;25.20;;
64667;SDS011;51077;42.716;23.344;2022-12-08T09:40:33;41.10;;;26.17;;
64667;SDS011;51077;42.716;23.344;2022-12-08T09:46:11;36.65;;;25.23;;
64667;SDS011;51077;42.716;23.344;2022-12-08T09:48:40;34.40;;;24.02;;
64667;SDS011;51077;42.716;23.344;2022-12-08T09:51:11;32.03;;;23.63;;
64667;SDS011;51077;42.716;23.344;2022-12-08T09:53:46;32.72;;;24.25;;
64667;SDS011;51077;42.716;23.344;2022-12-08T09:56:18;33.20;;;22.25;;
64667;SDS011;51077;42.716;23.344;2022-12-08T09:58:52;30.05;;;21.90;;
64667;SDS011;51077;42.716;23.344;2022-12-08T10:01:26;32.83;;;22.55;;
64667;SDS011;51077;42.716;23.344;2022-12-08T10:03:58;32.50;;;22.02;;
64667;SDS011;51077;42.716;23.344;2022-12-08T10:06:31;31.25;;;20.58;;
64667;SDS011;51077;42.716;23.344;2022-12-08T10:09:26;31.10;;;21.23;;
64667;SDS011;51077;42.716;23.344;2022-12-08T10:16:53;27.90;;;18.15;;
64667;SDS011;51077;42.716;23.344;2022-12-08T10:19:24;25.67;;;18.48;;
64667;SDS011;51077;42.716;23.344;2022-12-08T10:21:51;24.58;;;17.55;;
64667;SDS011;51077;42.716;23.344;2022-12-08T10:24:32;25.33;;;17.65;;
64667;SDS011;51077;42.716;23.344;2022-12-08T10:27:03;24.42;;;16.85;;
64667;SDS011;51077;42.716;23.344;2022-12-08T10:29:32;22.20;;;15.18;;
64667;SDS011;51077;42.716;23.344;2022-12-08T10:31:57;23.73;;;15.17;;
64667;SDS011;51077;42.716;23.344;2022-12-08T10:34:24;24.45;;;14.73;;
64667;SDS011;51077;42.716;23.344;2022-12-08T10:36:51;22.02;;;14.43;;
64667;SDS011;51077;42.716;23.344;2022-12-08T10:42:15;19.45;;;14.48;;
64667;SDS011;51077;42.716;23.344;2022-12-08T10:47:15;20.25;;;12.52;;
64667;SDS011;51077;42.716;23.344;2022-12-08T10:49:44;21.77;;;13.32;;
64667;SDS011;51077;42.716;23.344;2022-12-08T10:52:20;20.40;;;12.97;;
64667;SDS011;51077;42.716;23.344;2022-12-08T10:54:50;16.05;;;11.68;;
64667;SDS011;51077;42.716;23.344;2022-12-08T10:57:19;16.98;;;12.30;;
64667;SDS011;51077;42.716;23.344;2022-12-08T10:59:46;18.58;;;11.50;;
64667;SDS011;51077;42.716;23.344;2022-12-08T11:02:17;17.40;;;10.97;;
64667;SDS011;51077;42.716;23.344;2022-12-08T11:04:44;17.10;;;11.13;;
64667;SDS011;51077;42.716;23.344;2022-12-08T11:07:10;16.75;;;10.90;;
64667;SDS011;51077;42.716;23.344;2022-12-08T11:09:48;14.35;;;10.85;;
64667;SDS011;51077;42.716;23.344;2022-12-08T11:12:19;14.77;;;11.13;;
64667;SDS011;51077;42.716;23.344;2022-12-08T11:14:50;14.48;;;10.30;;
64667;SDS011;51077;42.716;23.344;2022-12-08T11:22:34;13.27;;;9.95;;
64667;SDS011;51077;42.716;23.344;2022-12-08T11:25:17;13.43;;;10.10;;
64667;SDS011;51077;42.716;23.344;2022-12-08T11:27:43;14.95;;;9.77;;
64667;SDS011;51077;42.716;23.344;2022-12-08T11:30:16;13.70;;;9.80;;
64667;SDS011;51077;42.716;23.344;2022-12-08T11:32:45;17.17;;;9.75;;
64667;SDS011;51077;42.716;23.344;2022-12-08T11:37:46;13.60;;;10.18;;
64667;SDS011;51077;42.716;23.344;2022-12-08T11:40:16;12.97;;;9.33;;
64667;SDS011;51077;42.716;23.344;2022-12-08T11:43:01;17.13;;;9.70;;
64667;SDS011;51077;42.716;23.344;2022-12-08T11:45:31;19.05;;;9.75;;
64667;SDS011;51077;42.716;23.344;2022-12-08T11:56:15;14.02;;;9.35;;
64667;SDS011;51077;42.716;23.344;2022-12-08T11:58:50;13.10;;;9.43;;
64667;SDS011;51077;42.716;23.344;2022-12-08T12:04:36;11.13;;;8.25;;
64667;SDS011;51077;42.716;23.344;2022-12-08T12:18:09;14.35;;;9.07;;
64667;SDS011;51077;42.716;23.344;2022-12-08T12:21:01;16.98;;;9.65;;
64667;SDS011;51077;42.716;23.344;2022-12-08T12:23:35;11.95;;;8.25;;
64667;SDS011;51077;42.716;23.344;2022-12-08T12:26:04;12.75;;;8.63;;
64667;SDS011;51077;42.716;23.344;2022-12-08T12:28:40;13.75;;;8.88;;
64667;SDS011;51077;42.716;23.344;2022-12-08T12:31:17;11.73;;;8.13;;
64667;SDS011;51077;42.716;23.344;2022-12-08T12:33:46;11.70;;;8.07;;
64667;SDS011;51077;42.716;23.344;2022-12-08T12:36:13;11.70;;;8.25;;
64667;SDS011;51077;42.716;23.344;2022-12-08T12:38:46;14.10;;;8.15;;
64667;SDS011;51077;42.716;23.344;2022-12-08T12:41:30;13.88;;;8.18;;
64667;SDS011;51077;42.716;23.344;2022-12-08T12:44:24;12.80;;;6.97;;
64667;SDS011;51077;42.716;23.344;2022-12-08T12:47:03;11.55;;;8.55;;
64667;SDS011;51077;42.716;23.344;2022-12-08T12:52:49;11.90;;;7.63;;
64667;SDS011;51077;42.716;23.344;2022-12-08T12:57:36;13.53;;;7.67;;
64667;SDS011;51077;42.716;23.344;2022-12-08T13:02:33;12.53;;;8.77;;
64667;SDS011;51077;42.716;23.344;2022-12-08T13:07:29;12.30;;;8.87;;
64667;SDS011;51077;42.716;23.344;2022-12-08T13:09:58;15.52;;;9.25;;
64667;SDS011;51077;42.716;23.344;2022-12-08T13:12:40;12.55;;;8.63;;
64667;SDS011;51077;42.716;23.344;2022-12-08T13:15:17;13.90;;;9.43;;
64667;SDS011;51077;42.716;23.344;2022-12-08T13:17:45;15.70;;;9.43;;
64667;SDS011;51077;42.716;23.344;2022-12-08T13:20:22;14.73;;;10.30;;
64667;SDS011;51077;42.716;23.344;2022-12-08T13:30:43;15.75;;;10.73;;
64667;SDS011;51077;42.716;23.344;2022-12-08T13:33:20;16.70;;;10.23;;
64667;SDS011;51077;42.716;23.344;2022-12-08T13:38:51;15.07;;;10.27;;
64667;SDS011;51077;42.716;23.344;2022-12-08T13:41:21;18.13;;;11.20;;
64667;SDS011;51077;42.716;23.344;2022-12-08T13:43:55;17.30;;;10.40;;
64667;SDS011;51077;42.716;23.344;2022-12-08T13:46:42;14.10;;;10.13;;
64667;SDS011;51077;42.716;23.344;2022-12-08T13:49:14;14.88;;;10.38;;
64667;SDS011;51077;42.716;23.344;2022-12-08T13:51:47;14.80;;;9.88;;
64667;SDS011;51077;42.716;23.344;2022-12-08T13:54:20;15.45;;;11.52;;
64667;SDS011;51077;42.716;23.344;2022-12-08T13:56:50;15.43;;;10.43;;
64667;SDS011;51077;42.716;23.344;2022-12-08T14:01:49;16.90;;;11.27;;
64667;SDS011;51077;42.716;23.344;2022-12-08T14:04:16;16.83;;;10.85;;
64667;SDS011;51077;42.716;23.344;2022-12-08T14:06:57;20.00;;;10.88;;
64667;SDS011;51077;42.716;23.344;2022-12-08T14:09:31;15.23;;;10.93;;
64667;SDS011;51077;42.716;23.344;2022-12-08T14:14:31;17.10;;;11.35;;
64667;SDS011;51077;42.716;23.344;2022-12-08T14:17:01;20.92;;;11.15;;
64667;SDS011;51077;42.716;23.344;2022-12-08T14:19:29;16.02;;;10.48;;
64667;SDS011;51077;42.716;23.344;2022-12-08T14:21:57;18.35;;;11.52;;
64667;SDS011;51077;42.716;23.344;2022-12-08T14:24:32;20.92;;;11.30;;
64667;SDS011;51077;42.716;23.344;2022-12-08T14:27:01;19.73;;;11.53;;
64667;SDS011;51077;42.716;23.344;2022-12-08T14:32:56;25.30;;;14.07;;
64667;SDS011;51077;42.716;23.344;2022-12-08T14:35:27;22.95;;;13.68;;
64667;SDS011;51077;42.716;23.344;2022-12-08T14:37:54;25.40;;;13.75;;
64667;SDS011;51077;42.716;23.344;2022-12-08T14:40:35;28.23;;;16.88;;
64667;SDS011;51077;42.716;23.344;2022-12-08T14:56:18;28.00;;;18.85;;
64667;SDS011;51077;42.716;23.344;2022-12-08T14:58:48;35.25;;;19.52;;
64667;SDS011;51077;42.716;23.344;2022-12-08T15:01:16;35.00;;;21.55;;
64667;SDS011;51077;42.716;23.344;2022-12-08T15:03:47;34.75;;;20.77;;
64667;SDS011;51077;42.716;23.344;2022-12-08T15:06:13;34.97;;;20.13;;
64667;SDS011;51077;42.716;23.344;2022-12-08T15:08:50;34.83;;;23.02;;
64667;SDS011;51077;42.716;23.344;2022-12-08T15:13:46;38.83;;;21.50;;
64667;SDS011;51077;42.716;23.344;2022-12-08T15:16:23;42.08;;;22.45;;
64667;SDS011;51077;42.716;23.344;2022-12-08T15:19:13;37.70;;;22.08;;
64667;SDS011;51077;42.716;23.344;2022-12-08T15:21:41;33.50;;;20.15;;
64667;SDS011;51077;42.716;23.344;2022-12-08T15:24:09;32.13;;;20.55;;
64667;SDS011;51077;42.716;23.344;2022-12-08T15:26:46;34.03;;;20.10;;
64667;SDS011;51077;42.716;23.344;2022-12-08T15:31:53;30.85;;;19.13;;
64667;SDS011;51077;42.716;23.344;2022-12-08T15:34:23;36.90;;;18.70;;
64667;SDS011;51077;42.716;23.344;2022-12-08T15:36:49;32.20;;;17.90;;
64667;SDS011;51077;42.716;23.344;2022-12-08T15:39:23;31.83;;;18.55;;
64667;SDS011;51077;42.716;23.344;2022-12-08T15:41:54;26.33;;;17.40;;
64667;SDS011;51077;42.716;23.344;2022-12-08T15:44:19;30.67;;;17.70;;
64667;SDS011;51077;42.716;23.344;2022-12-08T15:46:44;29.27;;;17.03;;
64667;SDS011;51077;42.716;23.344;2022-12-08T15:49:17;27.07;;;16.50;;
64667;SDS011;51077;42.716;23.344;2022-12-08T15:51:44;25.80;;;16.23;;
64667;SDS011;51077;42.716;23.344;2022-12-08T15:54:09;28.47;;;16.40;;
64667;SDS011;51077;42.716;23.344;2022-12-08T15:56:36;26.23;;;16.10;;
64667;SDS011;51077;42.716;23.344;2022-12-08T15:59:10;28.92;;;15.07;;
64667;SDS011;51077;42.716;23.344;2022-12-08T16:01:41;24.67;;;15.43;;
64667;SDS011;51077;42.716;23.344;2022-12-08T16:04:06;24.97;;;14.53;;
64667;SDS011;51077;42.716;23.344;2022-12-08T16:06:32;18.17;;;12.10;;
64667;SDS011;51077;42.716;23.344;2022-12-08T16:08:58;18.40;;;12.37;;
64667;SDS011;51077;42.716;23.344;2022-12-08T16:11:23;21.80;;;12.37;;
64667;SDS011;51077;42.716;23.344;2022-12-08T16:14:27;20.80;;;11.52;;
64667;SDS011;51077;42.716;23.344;2022-12-08T16:16:52;21.97;;;12.33;;
64667;SDS011;51077;42.716;23.344;2022-12-08T16:19:18;20.87;;;12.17;;
64667;SDS011;51077;42.716;23.344;2022-12-08T16:21:44;23.13;;;13.83;;